sensor_id;sensor_type;location;lat;lon;timestamp;temperature;humidity
69162;DHT22;56269;51.738;21.652;2023-03-01T00:01:25;-5.26;99.99
69162;DHT22;56269;51.738;21.652;2023-03-01T00:03:53;-5.22;99.99
69162;DHT22;56269;51.738;21.652;2023-03-01T00:06:20;-5.18;99.99
69162;DHT22;56269;51.738;21.652;2023-03-01T00:08:47;-5.33;99.99
69162;DHT22;56269;51.738;21.652;2023-03-01T00:11:15;-5.43;99.99
69162;DHT22;56269;51.738;21.652;2023-03-01T00:13:43;-5.38;99.99
69162;DHT22;56269;51.738;21.652;2023-03-01T00:16:14;-5.42;99.99
69162;DHT22;56269;51.738;21.652;2023-03-01T00:18:41;-5.15;99.99
69162;DHT22;56269;51.738;21.652;2023-03-01T00:21:07;-4.99;99.99
69162;DHT22;56269;51.738;21.652;2023-03-01T00:23:34;-4.85;99.99
69162;DHT22;56269;51.738;21.652;2023-03-01T00:26:01;-4.78;99.99
69162;DHT22;56269;51.738;21.652;2023-03-01T00:28:27;-4.63;99.99
69162;DHT22;56269;51.738;21.652;2023-03-01T00:30:54;-4.49;99.99
69162;DHT22;56269;51.738;21.652;2023-03-01T00:33:20;-4.42;99.35
69162;DHT22;56269;51.738;21.652;2023-03-01T00:35:46;-4.40;99.29
69162;DHT22;56269;51.738;21.652;2023-03-01T00:38:12;-4.36;98.83
69162;DHT22;56269;51.738;21.652;2023-03-01T00:40:39;-4.33;98.95
69162;DHT22;56269;51.738;21.652;2023-03-01T00:43:05;-4.29;98.40
69162;DHT22;56269;51.738;21.652;2023-03-01T00:45:32;-4.34;98.39
69162;DHT22;56269;51.738;21.652;2023-03-01T00:47:58;-4.33;98.19
69162;DHT22;56269;51.738;21.652;2023-03-01T00:50:25;-4.27;98.41
69162;DHT22;56269;51.738;21.652;2023-03-01T00:52:55;-4.23;98.24
69162;DHT22;56269;51.738;21.652;2023-03-01T00:55:22;-4.12;98.15
69162;DHT22;56269;51.738;21.652;2023-03-01T00:57:49;-4.10;97.80
69162;DHT22;56269;51.738;21.652;2023-03-01T01:00:16;-4.13;97.42
69162;DHT22;56269;51.738;21.652;2023-03-01T01:02:42;-4.10;97.44
69162;DHT22;56269;51.738;21.652;2023-03-01T01:05:08;-4.13;97.45
69162;DHT22;56269;51.738;21.652;2023-03-01T01:07:35;-4.17;97.04
69162;DHT22;56269;51.738;21.652;2023-03-01T01:10:01;-4.22;97.59
69162;DHT22;56269;51.738;21.652;2023-03-01T01:12:27;-4.27;97.24
69162;DHT22;56269;51.738;21.652;2023-03-01T01:14:54;-4.37;97.14
69162;DHT22;56269;51.738;21.652;2023-03-01T01:17:20;-4.39;97.70
69162;DHT22;56269;51.738;21.652;2023-03-01T01:19:46;-4.42;97.90
69162;DHT22;56269;51.738;21.652;2023-03-01T01:22:12;-4.49;97.67
69162;DHT22;56269;51.738;21.652;2023-03-01T01:24:39;-4.50;97.89
69162;DHT22;56269;51.738;21.652;2023-03-01T01:27:05;-4.52;97.81
69162;DHT22;56269;51.738;21.652;2023-03-01T01:29:33;-4.52;98.11
69162;DHT22;56269;51.738;21.652;2023-03-01T01:31:59;-4.44;98.90
69162;DHT22;56269;51.738;21.652;2023-03-01T01:34:25;-4.43;98.46
69162;DHT22;56269;51.738;21.652;2023-03-01T01:36:52;-4.40;98.84
69162;DHT22;56269;51.738;21.652;2023-03-01T01:39:22;-4.46;98.20
69162;DHT22;56269;51.738;21.652;2023-03-01T01:41:48;-4.47;98.06
69162;DHT22;56269;51.738;21.652;2023-03-01T01:44:22;-4.52;98.64
69162;DHT22;56269;51.738;21.652;2023-03-01T01:47:04;-4.52;99.06
69162;DHT22;56269;51.738;21.652;2023-03-01T01:49:57;-4.52;98.89
69162;DHT22;56269;51.738;21.652;2023-03-01T01:52:36;-4.54;98.71
69162;DHT22;56269;51.738;21.652;2023-03-01T01:55:10;-4.61;99.35
69162;DHT22;56269;51.738;21.652;2023-03-01T01:57:46;-4.67;99.09
69162;DHT22;56269;51.738;21.652;2023-03-01T02:00:19;-4.70;98.93
69162;DHT22;56269;51.738;21.652;2023-03-01T02:02:48;-4.75;98.90
69162;DHT22;56269;51.738;21.652;2023-03-01T02:06:04;-4.78;98.94
69162;DHT22;56269;51.738;21.652;2023-03-01T02:08:12;-4.80;99.04
69162;DHT22;56269;51.738;21.652;2023-03-01T02:10:40;-4.75;99.62
69162;DHT22;56269;51.738;21.652;2023-03-01T02:13:06;-4.74;99.64
69162;DHT22;56269;51.738;21.652;2023-03-01T02:15:35;-4.74;99.42
69162;DHT22;56269;51.738;21.652;2023-03-01T02:18:02;-4.74;99.27
69162;DHT22;56269;51.738;21.652;2023-03-01T02:20:39;-4.73;99.27
69162;DHT22;56269;51.738;21.652;2023-03-01T02:23:07;-4.73;99.67
69162;DHT22;56269;51.738;21.652;2023-03-01T02:30:47;-4.68;99.30
69162;DHT22;56269;51.738;21.652;2023-03-01T02:33:35;-4.68;99.80
69162;DHT22;56269;51.738;21.652;2023-03-01T02:36:15;-4.68;99.34
69162;DHT22;56269;51.738;21.652;2023-03-01T02:38:44;-4.65;99.99
69162;DHT22;56269;51.738;21.652;2023-03-01T02:41:12;-4.63;99.29
69162;DHT22;56269;51.738;21.652;2023-03-01T02:43:39;-4.68;99.17
69162;DHT22;56269;51.738;21.652;2023-03-01T02:46:18;-4.64;99.71
69162;DHT22;56269;51.738;21.652;2023-03-01T02:48:49;-4.71;99.39
69162;DHT22;56269;51.738;21.652;2023-03-01T02:52:01;-4.71;99.39
69162;DHT22;56269;51.738;21.652;2023-03-01T02:56:44;-4.87;99.57
69162;DHT22;56269;51.738;21.652;2023-03-01T02:59:16;-4.91;99.86
69162;DHT22;56269;51.738;21.652;2023-03-01T03:01:44;-4.99;99.90
69162;DHT22;56269;51.738;21.652;2023-03-01T03:04:14;-5.01;99.99
69162;DHT22;56269;51.738;21.652;2023-03-01T03:06:45;-5.02;99.98
69162;DHT22;56269;51.738;21.652;2023-03-01T03:09:13;-5.09;99.43
69162;DHT22;56269;51.738;21.652;2023-03-01T03:11:40;-5.09;99.87
69162;DHT22;56269;51.738;21.652;2023-03-01T03:14:08;-5.01;99.99
69162;DHT22;56269;51.738;21.652;2023-03-01T03:16:43;-4.87;99.99
69162;DHT22;56269;51.738;21.652;2023-03-01T03:19:10;-4.75;99.99
69162;DHT22;56269;51.738;21.652;2023-03-01T03:21:37;-4.67;99.76
69162;DHT22;56269;51.738;21.652;2023-03-01T03:24:03;-4.60;99.99
69162;DHT22;56269;51.738;21.652;2023-03-01T03:26:31;-4.56;99.63
69162;DHT22;56269;51.738;21.652;2023-03-01T03:28:57;-4.52;99.06
69162;DHT22;56269;51.738;21.652;2023-03-01T03:31:24;-4.47;99.01
69162;DHT22;56269;51.738;21.652;2023-03-01T03:33:51;-4.47;98.90
69162;DHT22;56269;51.738;21.652;2023-03-01T03:36:20;-4.50;98.44
69162;DHT22;56269;51.738;21.652;2023-03-01T03:38:46;-4.54;98.55
69162;DHT22;56269;51.738;21.652;2023-03-01T03:41:14;-4.58;98.76
69162;DHT22;56269;51.738;21.652;2023-03-01T03:43:41;-4.60;98.60
69162;DHT22;56269;51.738;21.652;2023-03-01T03:46:10;-4.65;98.68
69162;DHT22;56269;51.738;21.652;2023-03-01T03:48:40;-4.67;98.84
69162;DHT22;56269;51.738;21.652;2023-03-01T03:51:09;-4.71;98.93
69162;DHT22;56269;51.738;21.652;2023-03-01T03:53:35;-4.71;99.10
69162;DHT22;56269;51.738;21.652;2023-03-01T03:56:02;-4.67;99.18
69162;DHT22;56269;51.738;21.652;2023-03-01T03:58:28;-4.73;99.06
69162;DHT22;56269;51.738;21.652;2023-03-01T04:00:56;-4.70;99.16
69162;DHT22;56269;51.738;21.652;2023-03-01T04:03:24;-4.73;99.21
69162;DHT22;56269;51.738;21.652;2023-03-01T04:05:51;-4.80;98.93
69162;DHT22;56269;51.738;21.652;2023-03-01T04:08:21;-4.73;99.29
69162;DHT22;56269;51.738;21.652;2023-03-01T04:10:51;-4.73;99.78
69162;DHT22;56269;51.738;21.652;2023-03-01T04:13:20;-4.74;99.43
69162;DHT22;56269;51.738;21.652;2023-03-01T04:15:52;-4.81;99.50
69162;DHT22;56269;51.738;21.652;2023-03-01T04:18:20;-4.84;99.53
69162;DHT22;56269;51.738;21.652;2023-03-01T04:20:47;-4.84;99.84
69162;DHT22;56269;51.738;21.652;2023-03-01T04:23:16;-4.83;99.87
69162;DHT22;56269;51.738;21.652;2023-03-01T04:25:48;-4.80;99.73
69162;DHT22;56269;51.738;21.652;2023-03-01T04:28:23;-4.71;99.72
69162;DHT22;56269;51.738;21.652;2023-03-01T04:30:52;-4.70;99.52
69162;DHT22;56269;51.738;21.652;2023-03-01T04:33:18;-4.67;99.61
69162;DHT22;56269;51.738;21.652;2023-03-01T04:35:45;-4.73;99.23
69162;DHT22;56269;51.738;21.652;2023-03-01T04:38:11;-4.70;99.46
69162;DHT22;56269;51.738;21.652;2023-03-01T04:40:37;-4.74;99.40
69162;DHT22;56269;51.738;21.652;2023-03-01T04:43:04;-4.75;99.66
69162;DHT22;56269;51.738;21.652;2023-03-01T04:45:32;-4.77;99.35
69162;DHT22;56269;51.738;21.652;2023-03-01T04:47:58;-4.71;99.60
69162;DHT22;56269;51.738;21.652;2023-03-01T04:50:24;-4.71;99.52
69162;DHT22;56269;51.738;21.652;2023-03-01T04:52:51;-4.67;99.57
69162;DHT22;56269;51.738;21.652;2023-03-01T04:55:18;-4.65;99.39
69162;DHT22;56269;51.738;21.652;2023-03-01T04:57:45;-4.71;99.50
69162;DHT22;56269;51.738;21.652;2023-03-01T05:00:13;-4.77;99.31
69162;DHT22;56269;51.738;21.652;2023-03-01T05:02:54;-4.81;99.57
69162;DHT22;56269;51.738;21.652;2023-03-01T05:05:27;-4.75;99.92
69162;DHT22;56269;51.738;21.652;2023-03-01T05:07:57;-4.71;99.39
69162;DHT22;56269;51.738;21.652;2023-03-01T05:10:25;-4.63;99.57
69162;DHT22;56269;51.738;21.652;2023-03-01T05:12:51;-4.67;99.07
69162;DHT22;56269;51.738;21.652;2023-03-01T05:15:19;-4.65;98.83
69162;DHT22;56269;51.738;21.652;2023-03-01T05:17:48;-4.58;99.16
69162;DHT22;56269;51.738;21.652;2023-03-01T05:20:15;-4.54;98.90
69162;DHT22;56269;51.738;21.652;2023-03-01T05:22:41;-4.50;98.59
69162;DHT22;56269;51.738;21.652;2023-03-01T05:25:07;-4.47;98.22
69162;DHT22;56269;51.738;21.652;2023-03-01T05:27:34;-4.46;98.43
69162;DHT22;56269;51.738;21.652;2023-03-01T05:30:02;-4.36;98.39
69162;DHT22;56269;51.738;21.652;2023-03-01T05:32:46;-4.33;98.06
69162;DHT22;56269;51.738;21.652;2023-03-01T05:35:15;-4.34;97.81
69162;DHT22;56269;51.738;21.652;2023-03-01T05:37:43;-4.32;97.65
69162;DHT22;56269;51.738;21.652;2023-03-01T05:40:14;-4.33;97.55
69162;DHT22;56269;51.738;21.652;2023-03-01T05:42:55;-4.22;97.63
69162;DHT22;56269;51.738;21.652;2023-03-01T05:45:23;-4.16;97.03
69162;DHT22;56269;51.738;21.652;2023-03-01T05:47:51;-4.06;96.35
69162;DHT22;56269;51.738;21.652;2023-03-01T05:50:23;-3.96;96.26
69162;DHT22;56269;51.738;21.652;2023-03-01T05:52:51;-3.93;95.90
69162;DHT22;56269;51.738;21.652;2023-03-01T05:55:20;-3.89;95.54
69162;DHT22;56269;51.738;21.652;2023-03-01T05:57:47;-3.83;95.64
69162;DHT22;56269;51.738;21.652;2023-03-01T06:00:15;-3.82;95.39
69162;DHT22;56269;51.738;21.652;2023-03-01T06:02:42;-3.78;95.60
69162;DHT22;56269;51.738;21.652;2023-03-01T06:05:10;-3.68;95.75
69162;DHT22;56269;51.738;21.652;2023-03-01T06:07:36;-3.62;95.54
69162;DHT22;56269;51.738;21.652;2023-03-01T06:10:08;-3.57;95.24
69162;DHT22;56269;51.738;21.652;2023-03-01T06:12:37;-3.46;95.11
69162;DHT22;56269;51.738;21.652;2023-03-01T06:15:05;-3.37;94.48
69162;DHT22;56269;51.738;21.652;2023-03-01T06:17:34;-3.33;94.38
69162;DHT22;56269;51.738;21.652;2023-03-01T06:20:05;-3.19;94.11
69162;DHT22;56269;51.738;21.652;2023-03-01T06:22:31;-3.07;94.23
69162;DHT22;56269;51.738;21.652;2023-03-01T06:24:58;-2.97;93.63
69162;DHT22;56269;51.738;21.652;2023-03-01T06:27:24;-2.92;92.66
69162;DHT22;56269;51.738;21.652;2023-03-01T06:29:50;-2.80;92.07
69162;DHT22;56269;51.738;21.652;2023-03-01T06:32:16;-2.75;91.75
69162;DHT22;56269;51.738;21.652;2023-03-01T06:34:42;-2.55;91.88
69162;DHT22;56269;51.738;21.652;2023-03-01T06:37:08;-2.52;91.32
69162;DHT22;56269;51.738;21.652;2023-03-01T06:39:35;-2.38;91.30
69162;DHT22;56269;51.738;21.652;2023-03-01T06:42:01;-2.30;90.68
69162;DHT22;56269;51.738;21.652;2023-03-01T06:44:28;-2.25;89.88
69162;DHT22;56269;51.738;21.652;2023-03-01T06:46:54;-2.20;89.60
69162;DHT22;56269;51.738;21.652;2023-03-01T06:49:20;-1.96;90.10
69162;DHT22;56269;51.738;21.652;2023-03-01T06:51:46;-1.79;89.49
69162;DHT22;56269;51.738;21.652;2023-03-01T06:54:13;-1.65;89.04
69162;DHT22;56269;51.738;21.652;2023-03-01T06:56:39;-1.38;90.06
69162;DHT22;56269;51.738;21.652;2023-03-01T06:59:06;-1.41;87.80
69162;DHT22;56269;51.738;21.652;2023-03-01T07:01:32;-1.28;88.35
69162;DHT22;56269;51.738;21.652;2023-03-01T07:03:58;-1.15;87.32
69162;DHT22;56269;51.738;21.652;2023-03-01T07:06:24;-1.05;88.29
69162;DHT22;56269;51.738;21.652;2023-03-01T07:08:50;-1.07;86.78
69162;DHT22;56269;51.738;21.652;2023-03-01T07:11:16;-1.21;85.87
69162;DHT22;56269;51.738;21.652;2023-03-01T07:13:43;-1.11;86.36
69162;DHT22;56269;51.738;21.652;2023-03-01T07:16:09;-1.07;85.93
69162;DHT22;56269;51.738;21.652;2023-03-01T07:18:35;-0.98;86.10
69162;DHT22;56269;51.738;21.652;2023-03-01T07:21:09;-0.91;85.01
69162;DHT22;56269;51.738;21.652;2023-03-01T07:23:37;-0.69;85.89
69162;DHT22;56269;51.738;21.652;2023-03-01T07:26:03;-0.60;84.68
69162;DHT22;56269;51.738;21.652;2023-03-01T07:28:29;-0.44;84.77
69162;DHT22;56269;51.738;21.652;2023-03-01T07:31:02;-0.30;84.73
69162;DHT22;56269;51.738;21.652;2023-03-01T07:33:28;-0.12;84.42
69162;DHT22;56269;51.738;21.652;2023-03-01T07:35:58;-0.02;83.17
69162;DHT22;56269;51.738;21.652;2023-03-01T07:38:26;-0.03;82.78
69162;DHT22;56269;51.738;21.652;2023-03-01T07:40:52;0.03;83.77
69162;DHT22;56269;51.738;21.652;2023-03-01T07:43:19;0.11;81.81
69162;DHT22;56269;51.738;21.652;2023-03-01T07:45:46;0.21;82.83
69162;DHT22;56269;51.738;21.652;2023-03-01T07:48:12;0.22;81.55
69162;DHT22;56269;51.738;21.652;2023-03-01T07:50:38;0.48;81.32
69162;DHT22;56269;51.738;21.652;2023-03-01T07:53:05;0.46;80.55
69162;DHT22;56269;51.738;21.652;2023-03-01T07:55:30;0.97;80.73
69162;DHT22;56269;51.738;21.652;2023-03-01T07:57:57;0.91;79.44
69162;DHT22;56269;51.738;21.652;2023-03-01T08:00:23;1.14;79.82
69162;DHT22;56269;51.738;21.652;2023-03-01T08:02:49;1.55;78.98
69162;DHT22;56269;51.738;21.652;2023-03-01T08:05:15;1.35;77.38
69162;DHT22;56269;51.738;21.652;2023-03-01T08:07:42;1.30;77.09
69162;DHT22;56269;51.738;21.652;2023-03-01T08:10:08;1.34;77.27
69162;DHT22;56269;51.738;21.652;2023-03-01T08:12:35;1.77;78.55
69162;DHT22;56269;51.738;21.652;2023-03-01T08:15:01;1.86;78.43
69162;DHT22;56269;51.738;21.652;2023-03-01T08:17:27;2.09;78.10
69162;DHT22;56269;51.738;21.652;2023-03-01T08:19:53;2.23;75.91
69162;DHT22;56269;51.738;21.652;2023-03-01T08:22:20;2.33;74.64
69162;DHT22;56269;51.738;21.652;2023-03-01T08:24:46;1.86;75.56
69162;DHT22;56269;51.738;21.652;2023-03-01T08:27:15;2.06;74.92
69162;DHT22;56269;51.738;21.652;2023-03-01T08:29:41;1.90;76.16
69162;DHT22;56269;51.738;21.652;2023-03-01T08:32:07;2.21;76.77
69162;DHT22;56269;51.738;21.652;2023-03-01T08:34:33;2.79;74.98
69162;DHT22;56269;51.738;21.652;2023-03-01T08:37:01;2.59;72.25
69162;DHT22;56269;51.738;21.652;2023-03-01T08:39:27;2.66;74.39
69162;DHT22;56269;51.738;21.652;2023-03-01T08:41:53;3.03;71.81
69162;DHT22;56269;51.738;21.652;2023-03-01T08:44:19;3.10;71.83
69162;DHT22;56269;51.738;21.652;2023-03-01T08:46:47;3.49;72.55
69162;DHT22;56269;51.738;21.652;2023-03-01T08:49:16;3.64;70.06
69162;DHT22;56269;51.738;21.652;2023-03-01T08:51:43;4.01;70.87
69162;DHT22;56269;51.738;21.652;2023-03-01T08:54:17;3.39;71.17
69162;DHT22;56269;51.738;21.652;2023-03-01T08:56:45;3.39;70.83
69162;DHT22;56269;51.738;21.652;2023-03-01T08:59:12;3.74;71.33
69162;DHT22;56269;51.738;21.652;2023-03-01T09:01:39;3.32;69.99
69162;DHT22;56269;51.738;21.652;2023-03-01T09:04:06;3.36;70.15
69162;DHT22;56269;51.738;21.652;2023-03-01T09:06:34;3.87;69.76
69162;DHT22;56269;51.738;21.652;2023-03-01T09:09:00;4.09;69.39
69162;DHT22;56269;51.738;21.652;2023-03-01T09:11:28;3.54;69.32
69162;DHT22;56269;51.738;21.652;2023-03-01T09:13:54;3.63;68.91
69162;DHT22;56269;51.738;21.652;2023-03-01T09:16:21;3.53;69.27
69162;DHT22;56269;51.738;21.652;2023-03-01T09:18:54;3.92;68.08
69162;DHT22;56269;51.738;21.652;2023-03-01T09:21:22;4.46;67.65
69162;DHT22;56269;51.738;21.652;2023-03-01T09:23:49;4.19;69.98
69162;DHT22;56269;51.738;21.652;2023-03-01T09:26:17;3.69;66.69
69162;DHT22;56269;51.738;21.652;2023-03-01T09:28:49;3.69;68.88
69162;DHT22;56269;51.738;21.652;2023-03-01T09:31:17;3.40;69.00
69162;DHT22;56269;51.738;21.652;2023-03-01T09:33:46;3.39;68.89
69162;DHT22;56269;51.738;21.652;2023-03-01T09:36:16;3.70;70.07
69162;DHT22;56269;51.738;21.652;2023-03-01T09:38:43;3.54;68.66
69162;DHT22;56269;51.738;21.652;2023-03-01T09:41:35;3.70;69.29
69162;DHT22;56269;51.738;21.652;2023-03-01T09:44:24;4.26;67.23
69162;DHT22;56269;51.738;21.652;2023-03-01T09:46:53;4.49;67.48
69162;DHT22;56269;51.738;21.652;2023-03-01T09:49:22;4.69;68.62
69162;DHT22;56269;51.738;21.652;2023-03-01T09:52:05;4.94;67.73
69162;DHT22;56269;51.738;21.652;2023-03-01T09:54:35;5.18;67.14
69162;DHT22;56269;51.738;21.652;2023-03-01T10:00:07;5.13;67.26
69162;DHT22;56269;51.738;21.652;2023-03-01T10:02:38;5.55;66.05
69162;DHT22;56269;51.738;21.652;2023-03-01T10:08:06;4.97;66.41
69162;DHT22;56269;51.738;21.652;2023-03-01T10:10:42;5.30;65.16
69162;DHT22;56269;51.738;21.652;2023-03-01T10:13:23;6.02;66.85
69162;DHT22;56269;51.738;21.652;2023-03-01T10:15:54;6.21;64.01
69162;DHT22;56269;51.738;21.652;2023-03-01T10:18:26;5.62;64.84
69162;DHT22;56269;51.738;21.652;2023-03-01T10:21:19;5.39;65.72
69162;DHT22;56269;51.738;21.652;2023-03-01T10:23:46;6.02;63.71
69162;DHT22;56269;51.738;21.652;2023-03-01T10:26:22;6.14;63.87
69162;DHT22;56269;51.738;21.652;2023-03-01T10:31:46;6.20;62.78
69162;DHT22;56269;51.738;21.652;2023-03-01T10:34:18;6.34;64.11
69162;DHT22;56269;51.738;21.652;2023-03-01T10:36:48;6.92;61.92
69162;DHT22;56269;51.738;21.652;2023-03-01T10:39:21;6.95;62.76
69162;DHT22;56269;51.738;21.652;2023-03-01T10:42:19;6.95;62.39
69162;DHT22;56269;51.738;21.652;2023-03-01T10:44:48;6.84;63.53
69162;DHT22;56269;51.738;21.652;2023-03-01T10:47:23;6.03;64.98
69162;DHT22;56269;51.738;21.652;2023-03-01T10:49:56;6.00;66.04
69162;DHT22;56269;51.738;21.652;2023-03-01T10:52:26;6.52;65.55
69162;DHT22;56269;51.738;21.652;2023-03-01T10:54:59;7.12;63.92
69162;DHT22;56269;51.738;21.652;2023-03-01T10:57:35;7.24;63.04
69162;DHT22;56269;51.738;21.652;2023-03-01T11:00:22;7.56;61.67
69162;DHT22;56269;51.738;21.652;2023-03-01T11:03:00;6.72;63.28
69162;DHT22;56269;51.738;21.652;2023-03-01T11:09:22;7.08;64.42
69162;DHT22;56269;51.738;21.652;2023-03-01T11:11:54;7.57;63.08
69162;DHT22;56269;51.738;21.652;2023-03-01T11:14:26;7.84;61.37
69162;DHT22;56269;51.738;21.652;2023-03-01T11:17:15;7.02;62.84
69162;DHT22;56269;51.738;21.652;2023-03-01T11:19:42;7.36;62.47
69162;DHT22;56269;51.738;21.652;2023-03-01T11:22:19;7.71;64.27
69162;DHT22;56269;51.738;21.652;2023-03-01T11:24:49;7.93;62.78
69162;DHT22;56269;51.738;21.652;2023-03-01T11:27:18;7.64;64.08
69162;DHT22;56269;51.738;21.652;2023-03-01T11:30:15;7.78;63.66
69162;DHT22;56269;51.738;21.652;2023-03-01T11:35:29;7.05;62.76
69162;DHT22;56269;51.738;21.652;2023-03-01T11:38:09;6.65;65.94
69162;DHT22;56269;51.738;21.652;2023-03-01T11:40:49;6.81;66.70
69162;DHT22;56269;51.738;21.652;2023-03-01T11:54:30;7.81;65.22
69162;DHT22;56269;51.738;21.652;2023-03-01T11:59:51;7.27;67.54
69162;DHT22;56269;51.738;21.652;2023-03-01T12:03:11;7.81;64.08
69162;DHT22;56269;51.738;21.652;2023-03-01T12:08:10;8.35;63.13
69162;DHT22;56269;51.738;21.652;2023-03-01T12:11:02;8.46;61.20
69162;DHT22;56269;51.738;21.652;2023-03-01T12:13:43;8.48;61.93
69162;DHT22;56269;51.738;21.652;2023-03-01T12:27:51;8.38;63.59
69162;DHT22;56269;51.738;21.652;2023-03-01T12:30:35;8.31;66.58
69162;DHT22;56269;51.738;21.652;2023-03-01T12:36:14;7.57;65.50
69162;DHT22;56269;51.738;21.652;2023-03-01T12:38:48;7.97;66.02
69162;DHT22;56269;51.738;21.652;2023-03-01T12:41:48;7.60;65.54
69162;DHT22;56269;51.738;21.652;2023-03-01T12:47:23;8.36;66.89
69162;DHT22;56269;51.738;21.652;2023-03-01T12:49:59;8.04;65.18
69162;DHT22;56269;51.738;21.652;2023-03-01T12:52:41;8.36;65.07
69162;DHT22;56269;51.738;21.652;2023-03-01T12:58:24;8.12;65.80
69162;DHT22;56269;51.738;21.652;2023-03-01T13:08:56;7.43;67.47
69162;DHT22;56269;51.738;21.652;2023-03-01T13:11:26;7.44;68.35
69162;DHT22;56269;51.738;21.652;2023-03-01T13:16:44;7.88;66.02
69162;DHT22;56269;51.738;21.652;2023-03-01T13:19:23;7.98;66.82
69162;DHT22;56269;51.738;21.652;2023-03-01T13:21:52;8.22;65.56
69162;DHT22;56269;51.738;21.652;2023-03-01T13:24:41;8.65;66.61
69162;DHT22;56269;51.738;21.652;2023-03-01T13:32:26;8.16;66.12
69162;DHT22;56269;51.738;21.652;2023-03-01T13:37:47;7.80;67.56
69162;DHT22;56269;51.738;21.652;2023-03-01T13:42:46;8.04;66.20
69162;DHT22;56269;51.738;21.652;2023-03-01T13:47:52;7.57;68.35
69162;DHT22;56269;51.738;21.652;2023-03-01T13:50:25;7.49;70.52
69162;DHT22;56269;51.738;21.652;2023-03-01T13:53:16;7.29;67.23
69162;DHT22;56269;51.738;21.652;2023-03-01T13:55:55;6.75;70.26
69162;DHT22;56269;51.738;21.652;2023-03-01T13:58:28;6.44;71.31
69162;DHT22;56269;51.738;21.652;2023-03-01T14:01:05;6.36;71.11
69162;DHT22;56269;51.738;21.652;2023-03-01T14:03:39;6.31;73.42
69162;DHT22;56269;51.738;21.652;2023-03-01T14:06:21;6.21;73.15
69162;DHT22;56269;51.738;21.652;2023-03-01T14:08:50;6.31;72.16
69162;DHT22;56269;51.738;21.652;2023-03-01T14:19:21;6.05;72.58
69162;DHT22;56269;51.738;21.652;2023-03-01T14:22:20;5.93;73.93
69162;DHT22;56269;51.738;21.652;2023-03-01T14:24:51;6.00;73.06
69162;DHT22;56269;51.738;21.652;2023-03-01T14:27:19;6.30;72.15
69162;DHT22;56269;51.738;21.652;2023-03-01T14:29:56;6.17;72.29
69162;DHT22;56269;51.738;21.652;2023-03-01T14:32:26;6.19;73.17
69162;DHT22;56269;51.738;21.652;2023-03-01T14:34:52;6.07;73.52
69162;DHT22;56269;51.738;21.652;2023-03-01T14:37:31;5.86;74.44
69162;DHT22;56269;51.738;21.652;2023-03-01T14:39:59;5.73;75.36
69162;DHT22;56269;51.738;21.652;2023-03-01T14:42:30;5.58;74.53
69162;DHT22;56269;51.738;21.652;2023-03-01T14:44:57;5.52;76.97
69162;DHT22;56269;51.738;21.652;2023-03-01T14:47:34;5.49;75.96
69162;DHT22;56269;51.738;21.652;2023-03-01T14:50:09;5.62;75.66
69162;DHT22;56269;51.738;21.652;2023-03-01T14:52:38;5.86;77.93
69162;DHT22;56269;51.738;21.652;2023-03-01T14:55:13;5.95;74.59
69162;DHT22;56269;51.738;21.652;2023-03-01T14:57:44;6.13;74.52
69162;DHT22;56269;51.738;21.652;2023-03-01T15:00:22;6.40;73.83
69162;DHT22;56269;51.738;21.652;2023-03-01T15:02:50;6.33;74.72
69162;DHT22;56269;51.738;21.652;2023-03-01T15:05:41;6.29;73.13
69162;DHT22;56269;51.738;21.652;2023-03-01T15:08:06;6.23;73.72
69162;DHT22;56269;51.738;21.652;2023-03-01T15:10:35;6.27;74.21
69162;DHT22;56269;51.738;21.652;2023-03-01T15:13:22;6.29;72.96
69162;DHT22;56269;51.738;21.652;2023-03-01T15:15:51;6.19;73.90
69162;DHT22;56269;51.738;21.652;2023-03-01T15:18:21;6.11;73.96
69162;DHT22;56269;51.738;21.652;2023-03-01T15:20:50;6.02;74.50
69162;DHT22;56269;51.738;21.652;2023-03-01T15:23:28;5.96;74.92
69162;DHT22;56269;51.738;21.652;2023-03-01T15:25:56;5.89;75.25
69162;DHT22;56269;51.738;21.652;2023-03-01T15:28:43;5.79;74.88
69162;DHT22;56269;51.738;21.652;2023-03-01T15:31:24;5.70;76.13
69162;DHT22;56269;51.738;21.652;2023-03-01T15:33:51;5.58;76.64
69162;DHT22;56269;51.738;21.652;2023-03-01T15:36:42;5.41;78.38
69162;DHT22;56269;51.738;21.652;2023-03-01T15:39:32;5.11;79.51
69162;DHT22;56269;51.738;21.652;2023-03-01T15:42:58;4.80;78.02
69162;DHT22;56269;51.738;21.652;2023-03-01T15:47:56;4.09;80.38
69162;DHT22;56269;51.738;21.652;2023-03-01T15:50:29;3.69;84.30
69162;DHT22;56269;51.738;21.652;2023-03-01T15:53:00;3.39;84.35
69162;DHT22;56269;51.738;21.652;2023-03-01T15:55:29;3.08;86.66
69162;DHT22;56269;51.738;21.652;2023-03-01T15:58:19;2.81;87.29
69162;DHT22;56269;51.738;21.652;2023-03-01T16:00:46;2.62;86.60
69162;DHT22;56269;51.738;21.652;2023-03-01T16:03:15;2.55;86.86
69162;DHT22;56269;51.738;21.652;2023-03-01T16:05:51;2.42;87.04
69162;DHT22;56269;51.738;21.652;2023-03-01T16:08:18;2.31;87.75
69162;DHT22;56269;51.738;21.652;2023-03-01T16:10:45;2.03;88.56
69162;DHT22;56269;51.738;21.652;2023-03-01T16:13:12;1.77;89.83
69162;DHT22;56269;51.738;21.652;2023-03-01T16:15:39;1.63;89.97
69162;DHT22;56269;51.738;21.652;2023-03-01T16:18:06;1.38;91.20
69162;DHT22;56269;51.738;21.652;2023-03-01T16:20:36;1.23;94.29
69162;DHT22;56269;51.738;21.652;2023-03-01T16:23:05;1.03;94.11
69162;DHT22;56269;51.738;21.652;2023-03-01T16:25:32;0.97;94.71
69162;DHT22;56269;51.738;21.652;2023-03-01T16:27:59;0.87;94.12
69162;DHT22;56269;51.738;21.652;2023-03-01T16:30:29;0.74;95.02
69162;DHT22;56269;51.738;21.652;2023-03-01T16:32:56;0.69;95.48
69162;DHT22;56269;51.738;21.652;2023-03-01T16:35:22;0.57;97.32
69162;DHT22;56269;51.738;21.652;2023-03-01T16:37:49;0.45;97.32
69162;DHT22;56269;51.738;21.652;2023-03-01T16:42:44;0.13;96.14
69162;DHT22;56269;51.738;21.652;2023-03-01T16:45:11;-0.01;96.46
69162;DHT22;56269;51.738;21.652;2023-03-01T16:47:37;-0.05;98.09
69162;DHT22;56269;51.738;21.652;2023-03-01T16:50:04;-0.13;97.81
69162;DHT22;56269;51.738;21.652;2023-03-01T16:52:31;-0.22;98.53
69162;DHT22;56269;51.738;21.652;2023-03-01T16:54:57;-0.29;98.32
69162;DHT22;56269;51.738;21.652;2023-03-01T16:57:24;-0.34;98.59
69162;DHT22;56269;51.738;21.652;2023-03-01T16:59:53;-0.49;98.98
69162;DHT22;56269;51.738;21.652;2023-03-01T17:02:20;-0.53;99.33
69162;DHT22;56269;51.738;21.652;2023-03-01T17:04:54;-0.54;99.15
69162;DHT22;56269;51.738;21.652;2023-03-01T17:07:22;-0.44;99.40
69162;DHT22;56269;51.738;21.652;2023-03-01T17:09:48;-0.32;99.60
69162;DHT22;56269;51.738;21.652;2023-03-01T17:12:16;-0.34;98.93
69162;DHT22;56269;51.738;21.652;2023-03-01T17:14:42;-0.43;98.75
69162;DHT22;56269;51.738;21.652;2023-03-01T17:17:10;-0.42;99.54
69162;DHT22;56269;51.738;21.652;2023-03-01T17:19:37;-0.44;98.95
69162;DHT22;56269;51.738;21.652;2023-03-01T17:22:10;-0.59;99.69